Time;durP1;ratioP1;P1;durP2;ratioP2;P2;SDS_P1;SDS_P2;PMS_P1;PMS_P2;Temp;Humidity;BMP_temperature;BMP_pressure;BME280_temperature;BME280_humidity;BME280_pressure;Samples;Min_cycle;Max_cycle;Signal;HPM_P1;HPM_P2
2023/08/23 04:30:22;;;;;;;0.00;0.00;;;18.50;79.60;;;;;;5977034;23;20017;-77
2023/08/23 04:32:47;;;;;;;0.00;0.00;;;18.50;79.80;;;;;;4998312;28;20113;-77
2023/08/23 04:35:13;;;;;;;0.00;0.00;;;18.50;79.60;;;;;;5000619;28;20430;-77
2023/08/23 04:37:39;;;;;;;0.00;0.00;;;18.50;79.70;;;;;;4999071;28;20023;-77
2023/08/23 04:40:07;;;;;;;0.00;0.00;;;18.50;79.70;;;;;;5000558;28;20070;-77
2023/08/23 04:42:34;;;;;;;0.00;0.00;;;18.50;79.80;;;;;;5000338;28;20018;-77
2023/08/23 04:45:00;;;;;;;0.00;0.00;;;18.50;79.80;;;;;;5000482;28;20101;-77
2023/08/23 04:47:27;;;;;;;0.10;0.10;;;18.50;79.70;;;;;;5000466;28;20481;-77
2023/08/23 04:49:53;;;;;;;0.10;0.10;;;18.50;79.60;;;;;;4998826;28;20030;-77
2023/08/23 04:52:18;;;;;;;0.00;0.00;;;18.40;79.60;;;;;;5000403;28;20026;-77
2023/08/23 04:54:44;;;;;;;0.00;0.00;;;18.40;79.70;;;;;;5000325;28;20027;-77
2023/08/23 04:57:09;;;;;;;0.00;0.00;;;18.40;79.60;;;;;;5000210;28;20085;-77
2023/08/23 04:59:35;;;;;;;0.00;0.00;;;18.30;79.70;;;;;;5000067;28;20034;-78
2023/08/23 05:02:01;;;;;;;0.10;0.10;;;18.30;79.90;;;;;;4999820;28;20018;-77
2023/08/23 05:04:27;;;;;;;0.00;0.00;;;18.30;79.80;;;;;;5000648;28;20031;-78
2023/08/23 05:06:52;;;;;;;0.00;0.00;;;18.30;79.80;;;;;;5015600;28;20034;-78
2023/08/23 05:09:18;;;;;;;0.00;0.00;;;18.30;79.90;;;;;;4999946;28;20389;-78
2023/08/23 05:11:43;;;;;;;0.00;0.00;;;18.30;79.80;;;;;;5000285;28;20377;-78
2023/08/23 05:14:09;;;;;;;0.00;0.00;;;18.40;79.70;;;;;;4984089;28;20026;-78
2023/08/23 05:16:35;;;;;;;0.00;0.00;;;18.30;79.90;;;;;;4981156;28;20029;-78
2023/08/23 05:19:00;;;;;;;0.10;0.10;;;18.30;80.00;;;;;;4979498;28;20031;-78
2023/08/23 05:21:26;;;;;;;0.00;0.00;;;18.30;80.00;;;;;;4980736;28;20054;-78
2023/08/23 05:23:51;;;;;;;0.00;0.00;;;18.30;79.70;;;;;;4980895;28;20081;-78
2023/08/23 05:26:17;;;;;;;0.10;0.10;;;18.30;79.80;;;;;;4980843;28;20477;-78
2023/08/23 05:28:43;;;;;;;0.00;0.00;;;18.30;79.70;;;;;;4980858;28;20033;-78
2023/08/23 05:31:09;;;;;;;0.00;0.00;;;18.30;80.00;;;;;;4980509;28;20054;-78
2023/08/23 05:33:35;;;;;;;0.00;0.00;;;18.30;79.90;;;;;;4995081;28;20030;-79
2023/08/23 05:36:01;;;;;;;0.10;0.03;;;18.30;80.00;;;;;;5000149;28;20019;-78
2023/08/23 05:38:28;;;;;;;0.10;0.10;;;18.40;79.70;;;;;;4998928;28;20041;-78
2023/08/23 05:40:54;;;;;;;0.00;0.00;;;18.30;79.80;;;;;;4999722;28;20090;-78
2023/08/23 05:43:19;;;;;;;0.00;0.00;;;18.30;79.90;;;;;;5000025;28;20526;-78
2023/08/23 05:45:45;;;;;;;0.00;0.00;;;18.30;80.00;;;;;;4996900;28;20089;-79
2023/08/23 05:48:11;;;;;;;0.00;0.00;;;18.40;79.90;;;;;;4999861;28;20032;-79
2023/08/23 05:50:36;;;;;;;0.00;0.00;;;18.40;79.60;;;;;;4999793;28;20042;-78
2023/08/23 05:53:09;;;;;;;0.05;0.05;;;18.50;79.60;;;;;;4998405;28;20026;-78
2023/08/23 05:55:35;;;;;;;0.00;0.00;;;18.50;79.60;;;;;;5000033;28;20025;-79
2023/08/23 05:58:01;;;;;;;0.00;0.00;;;18.50;79.40;;;;;;4999827;28;20504;-78
2023/08/23 06:00:27;;;;;;;0.00;0.00;;;18.60;79.30;;;;;;4990750;28;20371;-79
2023/08/23 06:02:53;;;;;;;0.00;0.00;;;18.60;79.40;;;;;;4988802;28;20033;-78
2023/08/23 06:05:19;;;;;;;0.00;0.00;;;18.70;79.50;;;;;;5014461;28;20374;-78
2023/08/23 06:07:44;;;;;;;0.00;0.00;;;18.70;79.30;;;;;;4999413;28;20401;-78
2023/08/23 06:10:10;;;;;;;0.00;0.00;;;18.70;79.50;;;;;;4999320;28;20027;-78
2023/08/23 06:12:36;;;;;;;0.10;0.10;;;18.70;79.30;;;;;;4998167;28;20030;-78
2023/08/23 06:15:04;;;;;;;0.00;0.00;;;18.80;79.20;;;;;;4999361;28;20033;-78
2023/08/23 06:17:30;;;;;;;0.10;0.10;;;18.80;79.10;;;;;;4999114;28;20057;-78
2023/08/23 06:19:55;;;;;;;0.00;0.00;;;18.90;78.90;;;;;;5014253;28;20027;-78
2023/08/23 06:22:21;;;;;;;0.10;0.10;;;18.90;78.70;;;;;;4999047;28;20026;-78
2023/08/23 06:24:47;;;;;;;0.00;0.00;;;19.00;78.80;;;;;;4999288;28;20022;-78
2023/08/23 06:27:13;;;;;;;0.00;0.00;;;19.00;78.60;;;;;;4999169;28;20029;-78
2023/08/23 06:29:40;;;;;;;0.00;0.00;;;19.10;78.40;;;;;;4998828;28;20034;-78
2023/08/23 06:32:06;;;;;;;0.00;0.00;;;19.10;78.40;;;;;;4998765;28;21042;-78
2023/08/23 06:34:32;;;;;;;0.00;0.00;;;19.10;78.30;;;;;;4998955;28;20046;-79
2023/08/23 06:36:57;;;;;;;0.00;0.00;;;19.20;78.40;;;;;;4999034;28;20030;-79
2023/08/23 06:39:23;;;;;;;0.00;0.00;;;19.20;78.50;;;;;;4998893;28;20539;-79
2023/08/23 06:41:49;;;;;;;0.00;0.00;;;19.20;78.30;;;;;;4997800;28;20068;-78
2023/08/23 06:44:15;;;;;;;0.10;0.10;;;19.20;78.30;;;;;;4998820;28;20022;-78
2023/08/23 06:46:40;;;;;;;0.00;0.00;;;19.30;78.10;;;;;;4998878;28;20030;-78
2023/08/23 06:49:06;;;;;;;0.00;0.00;;;19.40;78.00;;;;;;4998294;28;20560;-79
2023/08/23 06:51:33;;;;;;;0.10;0.10;;;19.40;78.00;;;;;;4998624;28;20092;-78
2023/08/23 06:53:58;;;;;;;0.00;0.00;;;19.40;78.00;;;;;;4998749;28;20030;-79
2023/08/23 06:56:25;;;;;;;0.10;0.10;;;19.50;78.10;;;;;;4998903;28;20084;-79
2023/08/23 06:58:51;;;;;;;0.00;0.00;;;19.50;77.90;;;;;;4998675;28;20026;-78
2023/08/23 07:01:17;;;;;;;0.10;0.10;;;19.50;78.00;;;;;;4997450;28;20121;-79
2023/08/23 07:03:44;;;;;;;0.10;0.10;;;19.50;77.90;;;;;;4998346;28;20026;-79
2023/08/23 07:06:13;;;;;;;0.00;0.00;;;19.50;77.70;;;;;;4996800;28;20062;-79
2023/08/23 07:08:39;;;;;;;0.00;0.00;;;19.60;77.70;;;;;;4978305;28;20023;-78
2023/08/23 07:11:05;;;;;;;0.05;0.05;;;19.70;77.50;;;;;;4979215;28;20426;-79
2023/08/23 07:13:31;;;;;;;0.10;0.10;;;19.70;77.50;;;;;;4979509;28;20116;-79
2023/08/23 07:15:56;;;;;;;0.05;0.05;;;19.80;77.50;;;;;;4979212;28;20090;-78
2023/08/23 07:18:22;;;;;;;0.00;0.00;;;19.80;77.60;;;;;;4979043;28;20031;-79
2023/08/23 07:20:47;;;;;;;0.10;0.10;;;19.90;77.10;;;;;;4979337;28;20042;-78
2023/08/23 07:23:13;;;;;;;0.00;0.00;;;19.90;77.20;;;;;;4978955;28;20023;-78
2023/08/23 07:25:39;;;;;;;0.10;0.10;;;20.00;76.80;;;;;;4979266;28;20031;-79
2023/08/23 07:28:04;;;;;;;0.00;0.00;;;20.00;76.80;;;;;;4977465;28;20074;-79
2023/08/23 07:30:30;;;;;;;0.10;0.10;;;20.00;76.70;;;;;;4977387;28;20053;-78
2023/08/23 07:32:56;;;;;;;0.00;0.00;;;20.20;76.40;;;;;;4988835;28;20065;-79
2023/08/23 07:35:22;;;;;;;0.08;0.08;;;20.30;76.30;;;;;;5002193;28;20018;-79
2023/08/23 07:37:48;;;;;;;0.00;0.00;;;20.40;75.90;;;;;;5002227;28;20101;-79
2023/08/23 07:40:13;;;;;;;0.00;0.00;;;20.50;75.60;;;;;;5000906;28;20034;-79
2023/08/23 07:42:41;;;;;;;0.00;0.00;;;20.60;75.50;;;;;;5000854;28;20060;-79
2023/08/23 07:45:08;;;;;;;0.00;0.00;;;20.70;75.40;;;;;;5001920;28;20114;-79
2023/08/23 07:47:34;;;;;;;0.00;0.00;;;20.80;75.10;;;;;;5000550;28;20145;-79
2023/08/23 07:50:00;;;;;;;0.00;0.00;;;20.80;75.00;;;;;;4998798;28;20052;-79
2023/08/23 07:52:25;;;;;;;0.00;0.00;;;20.80;75.00;;;;;;5002130;28;20076;-78
2023/08/23 07:54:51;;;;;;;0.00;0.00;;;20.80;75.20;;;;;;5001880;28;20033;-78
2023/08/23 07:57:16;;;;;;;0.00;0.00;;;20.90;75.20;;;;;;5002005;28;20045;-78
2023/08/23 07:59:42;;;;;;;0.03;0.03;;;21.10;74.80;;;;;;4999359;28;20712;-79
2023/08/23 08:02:08;;;;;;;0.10;0.10;;;21.30;74.30;;;;;;4985149;28;20023;-78
2023/08/23 08:04:33;;;;;;;0.10;0.10;;;21.60;73.20;;;;;;4999932;28;20136;-78
2023/08/23 08:06:59;;;;;;;0.00;0.00;;;22.00;72.60;;;;;;5001681;28;20038;-79
2023/08/23 08:09:25;;;;;;;0.10;0.10;;;22.30;71.80;;;;;;5001465;28;20034;-79
2023/08/23 08:11:51;;;;;;;0.10;0.10;;;22.50;70.70;;;;;;5001696;28;20069;-78
2023/08/23 08:14:17;;;;;;;0.10;0.10;;;22.80;70.50;;;;;;5001490;28;20026;-79
2023/08/23 08:16:43;;;;;;;0.10;0.10;;;23.00;69.90;;;;;;5001578;28;20050;-79
2023/08/23 08:19:08;;;;;;;0.10;0.10;;;23.10;69.50;;;;;;5001531;28;20026;-79
2023/08/23 08:21:36;;;;;;;0.10;0.10;;;23.30;68.80;;;;;;5001524;28;20038;-79
2023/08/23 08:24:02;;;;;;;0.00;0.00;;;23.30;68.20;;;;;;5016408;28;20035;-79
2023/08/23 08:26:28;;;;;;;0.05;0.05;;;23.30;68.10;;;;;;5001600;28;20022;-79
2023/08/23 08:28:54;;;;;;;0.10;0.10;;;23.30;68.10;;;;;;5000118;28;20030;-78
2023/08/23 08:31:20;;;;;;;0.00;0.00;;;23.30;68.40;;;;;;5001408;28;20039;-79
2023/08/23 08:33:46;;;;;;;0.00;0.00;;;23.30;68.10;;;;;;5000935;28;20493;-79
2023/08/23 08:36:12;;;;;;;0.05;0.05;;;23.30;68.10;;;;;;5001290;28;20061;-79
2023/08/23 08:38:38;;;;;;;0.10;0.10;;;23.50;67.70;;;;;;4999936;28;20034;-79
2023/08/23 08:41:04;;;;;;;0.10;0.10;;;23.90;65.90;;;;;;5001248;28;20022;-79
2023/08/23 08:43:31;;;;;;;0.10;0.10;;;24.20;65.30;;;;;;5001393;28;20037;-79
2023/08/23 08:45:57;;;;;;;0.30;0.30;;;24.80;64.10;;;;;;4999985;28;20026;-79
2023/08/23 08:48:23;;;;;;;0.20;0.20;;;25.70;62.20;;;;;;4999623;28;20101;-79
2023/08/23 08:50:49;;;;;;;0.10;0.10;;;26.50;58.90;;;;;;4999507;28;20033;-79
2023/08/23 08:53:17;;;;;;;0.10;0.10;;;26.80;58.40;;;;;;5000715;28;20487;-79
2023/08/23 08:55:45;;;;;;;0.10;0.10;;;26.80;57.60;;;;;;5000836;28;20033;-79
2023/08/23 08:58:14;;;;;;;0.10;0.10;;;27.00;57.60;;;;;;5000826;28;20420;-79
2023/08/23 09:00:41;;;;;;;0.28;0.10;;;27.10;57.20;;;;;;5000706;28;20025;-79
2023/08/23 09:03:07;;;;;;;0.10;0.10;;;27.00;56.90;;;;;;5000183;28;20026;-79
2023/08/23 09:05:33;;;;;;;0.10;0.10;;;27.00;56.90;;;;;;5000787;28;20032;-79
2023/08/23 09:07:58;;;;;;;0.10;0.10;;;26.80;56.80;;;;;;5000555;28;20541;-79
2023/08/23 09:10:24;;;;;;;0.00;0.00;;;26.50;56.50;;;;;;5000893;28;20033;-79
2023/08/23 09:12:50;;;;;;;0.00;0.00;;;26.40;57.80;;;;;;4997601;28;20027;-79
2023/08/23 09:15:23;;;;;;;0.00;0.00;;;26.60;58.00;;;;;;5000329;28;20037;-79
2023/08/23 09:17:51;;;;;;;0.00;0.00;;;26.40;58.10;;;;;;4999649;28;20062;-79
2023/08/23 09:20:16;;;;;;;0.00;0.00;;;26.30;58.80;;;;;;5000431;28;20440;-79
2023/08/23 09:22:42;;;;;;;0.00;0.00;;;26.10;59.00;;;;;;4998517;28;20027;-79
2023/08/23 09:25:08;;;;;;;0.10;0.10;;;26.00;58.80;;;;;;5000291;28;20382;-79
2023/08/23 09:27:34;;;;;;;0.00;0.00;;;25.90;59.50;;;;;;5000352;28;20035;-79
2023/08/23 09:30:02;;;;;;;0.10;0.10;;;26.00;59.80;;;;;;5000063;28;20037;-79
2023/08/23 09:32:28;;;;;;;0.05;0.05;;;26.00;59.90;;;;;;4998111;28;20096;-79
2023/08/23 09:34:54;;;;;;;0.00;0.00;;;26.20;59.80;;;;;;5014914;28;20022;-79
2023/08/23 09:37:19;;;;;;;0.00;0.00;;;26.00;60.00;;;;;;5000030;28;20027;-79
2023/08/23 09:39:45;;;;;;;0.10;0.10;;;25.80;60.50;;;;;;5000008;28;20030;-79
2023/08/23 09:42:14;;;;;;;0.00;0.00;;;25.80;60.90;;;;;;4999930;28;20041;-79
2023/08/23 09:44:41;;;;;;;0.10;0.10;;;25.70;61.70;;;;;;4998489;28;20026;-79
2023/08/23 09:47:17;;;;;;;0.10;0.10;;;25.70;62.20;;;;;;5000190;28;20571;-79
2023/08/23 09:49:44;;;;;;;0.00;0.00;;;25.90;61.70;;;;;;4997910;28;20113;-79
2023/08/23 09:52:11;;;;;;;0.00;0.00;;;26.00;61.70;;;;;;4999492;28;20027;-79
2023/08/23 09:55:09;;;;;;;0.10;0.10;;;26.10;61.30;;;;;;4999802;28;20022;-79
2023/08/23 09:57:35;;;;;;;0.10;0.10;;;26.30;61.30;;;;;;4998161;28;20049;-79
2023/08/23 10:00:02;;;;;;;0.00;0.00;;;26.30;60.80;;;;;;4998080;28;20037;-79
2023/08/23 10:02:29;;;;;;;0.05;0.05;;;26.30;61.10;;;;;;4997854;28;20485;-79
2023/08/23 10:04:56;;;;;;;0.00;0.00;;;26.30;62.00;;;;;;4999419;28;20026;-79
2023/08/23 10:07:23;;;;;;;0.10;0.10;;;26.40;62.00;;;;;;4999716;28;20033;-79
2023/08/23 10:09:49;;;;;;;0.10;0.10;;;26.50;61.80;;;;;;4999358;28;20066;-79
2023/08/23 10:12:16;;;;;;;0.00;0.00;;;26.60;61.60;;;;;;4999502;28;20023;-79
2023/08/23 10:14:46;;;;;;;0.00;0.00;;;26.70;61.50;;;;;;4999419;28;20030;-79
2023/08/23 10:17:16;;;;;;;0.05;0.05;;;26.70;61.30;;;;;;4993543;28;20023;-79
2023/08/23 10:19:47;;;;;;;0.00;0.00;;;26.80;61.50;;;;;;4994522;28;20054;-79
2023/08/23 10:22:13;;;;;;;0.00;0.00;;;26.80;60.90;;;;;;4997695;28;20030;-79
2023/08/23 10:24:40;;;;;;;0.00;0.00;;;26.80;61.50;;;;;;4999222;28;20034;-79
2023/08/23 10:27:07;;;;;;;0.10;0.10;;;26.80;61.70;;;;;;4999319;28;20018;-79
2023/08/23 10:29:34;;;;;;;0.10;0.10;;;26.70;60.90;;;;;;4998865;28;20046;-78
2023/08/23 10:32:10;;;;;;;0.00;0.00;;;26.90;61.20;;;;;;5013866;28;20129;-79
2023/08/23 10:34:37;;;;;;;0.10;0.05;;;27.00;60.70;;;;;;4999013;28;20026;-79
2023/08/23 10:37:21;;;;;;;0.10;0.10;;;26.90;61.10;;;;;;4998691;28;20149;-78
2023/08/23 10:39:47;;;;;;;0.00;0.00;;;26.80;61.20;;;;;;4998768;28;20038;-78
2023/08/23 10:42:14;;;;;;;0.00;0.00;;;26.90;61.40;;;;;;4999019;28;20022;-78
2023/08/23 10:44:56;;;;;;;0.00;0.00;;;26.90;61.40;;;;;;4997349;28;20030;-78
2023/08/23 10:47:23;;;;;;;0.00;0.00;;;27.10;61.70;;;;;;4997522;28;20026;-79
2023/08/23 10:49:50;;;;;;;0.00;0.00;;;27.10;60.50;;;;;;4998385;28;20046;-78
2023/08/23 10:52:16;;;;;;;0.10;0.00;;;27.10;60.60;;;;;;4997283;28;20019;-78
2023/08/23 10:54:42;;;;;;;0.00;0.00;;;27.00;60.70;;;;;;4998722;28;20033;-78
2023/08/23 10:57:08;;;;;;;0.00;0.00;;;26.80;61.50;;;;;;4997271;28;20026;-78
2023/08/23 10:59:34;;;;;;;0.10;0.10;;;26.90;61.00;;;;;;4998581;28;20022;-79
2023/08/23 11:02:00;;;;;;;0.08;0.08;;;27.00;61.40;;;;;;4998552;28;20033;-78
2023/08/23 11:04:26;;;;;;;0.00;0.00;;;27.10;61.20;;;;;;4998566;28;20039;-79
2023/08/23 11:06:52;;;;;;;0.10;0.10;;;27.10;60.90;;;;;;4994420;28;20539;-79
2023/08/23 11:09:18;;;;;;;0.00;0.00;;;27.20;60.70;;;;;;4978666;28;20436;-79
2023/08/23 11:11:44;;;;;;;0.10;0.10;;;27.30;61.80;;;;;;4979108;28;20015;-79
2023/08/23 11:14:10;;;;;;;0.10;0.10;;;27.30;61.60;;;;;;4979027;28;20026;-79
2023/08/23 11:16:35;;;;;;;0.00;0.00;;;27.30;61.10;;;;;;4979583;28;20082;-79
2023/08/23 11:19:08;;;;;;;0.00;0.00;;;27.30;61.30;;;;;;4980305;28;20038;-79
2023/08/23 11:21:35;;;;;;;0.08;0.08;;;27.30;61.40;;;;;;4978993;28;20022;-79
2023/08/23 11:24:03;;;;;;;0.00;0.00;;;27.30;61.80;;;;;;4979035;28;20045;-79
2023/08/23 11:26:36;;;;;;;0.10;0.10;;;27.30;61.60;;;;;;4979296;28;20105;-79
2023/08/23 11:29:02;;;;;;;0.10;0.10;;;27.30;62.20;;;;;;4979119;28;20031;-79
2023/08/23 11:31:29;;;;;;;0.00;0.00;;;27.30;61.70;;;;;;4978967;28;20144;-79
2023/08/23 11:33:57;;;;;;;0.10;0.10;;;27.30;62.30;;;;;;4994434;28;20493;-79
2023/08/23 11:36:23;;;;;;;0.10;0.10;;;27.40;62.30;;;;;;4998333;28;20026;-79
2023/08/23 11:38:49;;;;;;;0.00;0.00;;;27.50;62.60;;;;;;4998286;28;20030;-80
2023/08/23 11:41:26;;;;;;;0.10;0.10;;;27.50;61.70;;;;;;5013408;28;20026;-80
2023/08/23 11:43:53;;;;;;;0.00;0.00;;;27.60;62.30;;;;;;4998154;28;20038;-79
2023/08/23 11:46:19;;;;;;;0.08;0.08;;;27.70;61.70;;;;;;4998347;28;20054;-79
2023/08/23 11:48:44;;;;;;;0.00;0.00;;;27.70;62.10;;;;;;4996707;28;20031;-80
2023/08/23 11:51:10;;;;;;;0.00;0.00;;;27.80;61.60;;;;;;4998262;28;20022;-79
2023/08/23 11:53:36;;;;;;;0.00;0.00;;;27.80;61.60;;;;;;4997999;28;20061;-80
2023/08/23 11:56:05;;;;;;;0.00;0.00;;;27.90;61.40;;;;;;4998271;28;20081;-80
2023/08/23 11:58:31;;;;;;;0.08;0.08;;;27.90;62.10;;;;;;4998240;28;20548;-79
2023/08/23 12:00:57;;;;;;;0.00;0.00;;;27.90;61.30;;;;;;5009825;28;20044;-80
2023/08/23 12:03:23;;;;;;;0.00;0.00;;;27.90;61.30;;;;;;4991348;28;20385;-80
2023/08/23 12:05:49;;;;;;;0.03;0.03;;;27.90;60.80;;;;;;4998197;28;20018;-79
2023/08/23 12:08:15;;;;;;;0.00;0.00;;;28.00;61.20;;;;;;4998237;28;20029;-79
2023/08/23 12:10:40;;;;;;;0.10;0.10;;;28.00;61.30;;;;;;4997937;28;20389;-80
2023/08/23 12:13:06;;;;;;;0.00;0.00;;;28.00;60.70;;;;;;4996983;28;20129;-79
2023/08/23 12:15:32;;;;;;;0.10;0.10;;;28.10;60.70;;;;;;4998065;28;20015;-79
2023/08/23 12:17:58;;;;;;;0.00;0.00;;;28.20;60.40;;;;;;4997872;28;20485;-79
2023/08/23 12:20:23;;;;;;;0.05;0.05;;;28.20;60.40;;;;;;5000652;28;20049;-80
2023/08/23 12:22:50;;;;;;;0.00;0.00;;;28.10;60.80;;;;;;5001245;28;20030;-80
2023/08/23 12:25:16;;;;;;;0.00;0.00;;;28.30;61.10;;;;;;5001591;28;20157;-79
2023/08/23 12:27:42;;;;;;;0.00;0.00;;;28.30;60.80;;;;;;5001358;28;20050;-79
2023/08/23 12:30:09;;;;;;;0.00;0.00;;;28.30;60.50;;;;;;5001230;28;20030;-79
2023/08/23 12:32:35;;;;;;;0.00;0.00;;;28.30;61.00;;;;;;5001362;28;20034;-79
2023/08/23 12:35:04;;;;;;;0.20;0.00;;;28.40;60.50;;;;;;5001222;28;20376;-79
2023/08/23 12:37:29;;;;;;;0.08;0.08;;;28.50;59.40;;;;;;4999861;28;20392;-79
2023/08/23 12:39:56;;;;;;;0.00;0.00;;;28.50;60.60;;;;;;5001121;28;20081;-79
2023/08/23 12:42:22;;;;;;;0.10;0.10;;;28.70;60.40;;;;;;4999772;28;20038;-79
2023/08/23 12:44:48;;;;;;;0.00;0.00;;;28.70;59.90;;;;;;4999675;28;20404;-79
2023/08/23 12:47:14;;;;;;;0.00;0.00;;;28.70;60.20;;;;;;5001321;28;20085;-79
2023/08/23 12:49:39;;;;;;;0.00;0.00;;;28.80;61.70;;;;;;5000426;28;20023;-79
2023/08/23 12:52:06;;;;;;;0.00;0.00;;;28.90;59.90;;;;;;4999478;28;20477;-79
2023/08/23 12:54:31;;;;;;;0.10;0.00;;;28.90;60.10;;;;;;4999528;28;20033;-79
2023/08/23 12:56:57;;;;;;;0.20;0.10;;;29.00;59.20;;;;;;5000924;28;20022;-79
2023/08/23 12:59:23;;;;;;;0.08;0.08;;;29.00;58.80;;;;;;5000829;28;20031;-79
2023/08/23 13:01:49;;;;;;;0.00;0.00;;;29.00;58.60;;;;;;5000641;28;20031;-79
2023/08/23 13:04:14;;;;;;;0.00;0.00;;;29.00;58.50;;;;;;5000755;28;20030;-79
2023/08/23 13:06:40;;;;;;;0.00;0.00;;;29.10;58.40;;;;;;5000446;28;20045;-80
2023/08/23 13:09:05;;;;;;;0.00;0.00;;;29.10;58.30;;;;;;5000597;28;20026;-79
2023/08/23 13:11:31;;;;;;;0.00;0.00;;;29.30;58.20;;;;;;4998723;28;20026;-79
2023/08/23 13:13:57;;;;;;;0.00;0.00;;;29.30;57.70;;;;;;4981366;28;20022;-79
2023/08/23 13:16:23;;;;;;;0.00;0.00;;;29.30;58.40;;;;;;4979765;28;20026;-79
2023/08/23 13:18:48;;;;;;;0.00;0.00;;;29.50;58.10;;;;;;4982941;28;20031;-79
2023/08/23 13:21:14;;;;;;;0.10;0.10;;;29.50;57.90;;;;;;4980707;28;20044;-79
2023/08/23 13:23:39;;;;;;;0.10;0.10;;;29.70;58.20;;;;;;4980759;28;20026;-79
2023/08/23 13:26:05;;;;;;;0.00;0.00;;;29.80;57.10;;;;;;4980898;28;20366;-80
2023/08/23 13:28:31;;;;;;;0.05;0.05;;;30.00;57.10;;;;;;4980823;28;20508;-80
2023/08/23 13:30:57;;;;;;;0.10;0.10;;;30.00;56.60;;;;;;4979818;28;20051;-79
2023/08/23 13:33:23;;;;;;;0.00;0.00;;;29.90;56.80;;;;;;4993461;28;20432;-80
2023/08/23 13:35:49;;;;;;;0.00;0.00;;;29.90;57.00;;;;;;5000261;28;20054;-79
2023/08/23 13:38:15;;;;;;;0.10;0.10;;;29.90;56.90;;;;;;4999919;28;20105;-79
2023/08/23 13:40:41;;;;;;;0.03;0.03;;;29.90;57.40;;;;;;5000159;28;20031;-79
2023/08/23 13:43:06;;;;;;;0.15;0.08;;;30.00;56.70;;;;;;5000020;28;20031;-79
2023/08/23 13:45:32;;;;;;;0.00;0.00;;;29.90;57.60;;;;;;5000018;28;20065;-79
2023/08/23 13:47:58;;;;;;;0.00;0.00;;;29.70;57.70;;;;;;4999808;28;20023;-79
2023/08/23 13:50:23;;;;;;;0.10;0.10;;;29.50;58.40;;;;;;4999503;28;20109;-79
2023/08/23 13:52:49;;;;;;;0.10;0.10;;;29.50;58.10;;;;;;4999604;28;20033;-79
2023/08/23 13:55:15;;;;;;;0.10;0.10;;;29.80;58.50;;;;;;4999568;28;20033;-80
2023/08/23 13:57:41;;;;;;;0.00;0.00;;;30.10;58.10;;;;;;4999761;28;20385;-80
2023/08/23 14:00:08;;;;;;;0.03;0.03;;;30.10;58.10;;;;;;4999569;28;20034;-79
2023/08/23 14:02:34;;;;;;;0.00;0.00;;;30.10;57.70;;;;;;4999450;28;20021;-79
2023/08/23 14:04:59;;;;;;;0.00;0.00;;;29.90;57.60;;;;;;4999206;28;20035;-79
2023/08/23 14:07:26;;;;;;;0.00;0.00;;;30.00;57.60;;;;;;4999711;28;20100;-79
2023/08/23 14:09:51;;;;;;;0.00;0.00;;;30.00;57.90;;;;;;4999349;28;20042;-79
2023/08/23 14:12:17;;;;;;;0.00;0.00;;;30.20;58.50;;;;;;4999512;28;20444;-79
2023/08/23 14:14:43;;;;;;;0.08;0.08;;;30.30;58.20;;;;;;4997973;28;20061;-80
2023/08/23 14:17:09;;;;;;;0.10;0.10;;;30.30;56.90;;;;;;4999397;28;20022;-79
2023/08/23 14:19:45;;;;;;;0.10;0.10;;;30.30;57.50;;;;;;4999108;28;20436;-80
2023/08/23 14:22:11;;;;;;;0.00;0.00;;;30.30;57.40;;;;;;4999170;28;20029;-79
2023/08/23 14:24:36;;;;;;;0.10;0.10;;;30.30;57.30;;;;;;4999257;28;20389;-79
2023/08/23 14:27:02;;;;;;;0.03;0.03;;;30.30;57.00;;;;;;4999133;28;20022;-79
2023/08/23 14:29:29;;;;;;;0.10;0.10;;;30.30;57.00;;;;;;4998974;28;20029;-79
2023/08/23 14:31:55;;;;;;;0.00;0.00;;;30.20;58.70;;;;;;4998807;28;20046;-79
2023/08/23 14:34:21;;;;;;;0.00;0.00;;;30.30;58.30;;;;;;4998603;28;20037;-80
2023/08/23 14:36:47;;;;;;;0.00;0.00;;;30.30;57.90;;;;;;4997332;28;20033;-80
2023/08/23 14:39:13;;;;;;;0.03;0.03;;;30.30;57.50;;;;;;4999065;28;20034;-79
2023/08/23 14:41:39;;;;;;;0.00;0.00;;;30.30;57.80;;;;;;4998628;28;20418;-79
2023/08/23 14:44:05;;;;;;;0.00;0.00;;;30.20;57.90;;;;;;4996585;28;20030;-79
2023/08/23 14:46:31;;;;;;;0.00;0.00;;;30.00;58.60;;;;;;4997537;28;20489;-79
2023/08/23 14:48:57;;;;;;;0.00;0.00;;;29.80;59.20;;;;;;4998386;28;20049;-79
2023/08/23 14:51:23;;;;;;;0.10;0.10;;;29.80;59.40;;;;;;4998657;28;20054;-79
2023/08/23 14:53:49;;;;;;;0.05;0.05;;;29.70;59.60;;;;;;4998576;28;20030;-79
2023/08/23 14:56:15;;;;;;;0.00;0.00;;;29.90;59.60;;;;;;4997370;28;20023;-79
2023/08/23 14:58:40;;;;;;;0.10;0.10;;;30.00;58.80;;;;;;4998817;28;20532;-79
2023/08/23 15:01:06;;;;;;;0.10;0.10;;;30.20;58.30;;;;;;4997028;28;20027;-79
2023/08/23 15:03:32;;;;;;;0.10;0.10;;;30.30;58.90;;;;;;4996986;28;20022;-79
2023/08/23 15:05:58;;;;;;;0.00;0.00;;;30.30;58.80;;;;;;4998665;28;20025;-79
2023/08/23 15:08:26;;;;;;;0.00;0.00;;;30.30;58.70;;;;;;4997447;28;20022;-79
2023/08/23 15:10:56;;;;;;;0.00;0.00;;;30.10;59.00;;;;;;4996881;28;20669;-79
2023/08/23 15:13:22;;;;;;;0.00;0.00;;;30.10;59.50;;;;;;4998634;28;20449;-79
2023/08/23 15:15:54;;;;;;;0.10;0.10;;;30.10;59.20;;;;;;4995381;28;20069;-79
2023/08/23 15:18:20;;;;;;;0.00;0.00;;;30.20;59.30;;;;;;4998427;28;20090;-79
2023/08/23 15:20:45;;;;;;;0.00;0.00;;;30.30;59.20;;;;;;4994908;28;20462;-79
2023/08/23 15:23:11;;;;;;;0.10;0.10;;;30.30;58.50;;;;;;4980131;28;20027;-79
2023/08/23 15:25:36;;;;;;;0.00;0.00;;;30.40;58.90;;;;;;4978925;28;20094;-79
2023/08/23 15:28:02;;;;;;;0.00;0.00;;;30.40;58.90;;;;;;4978889;28;20489;-79
2023/08/23 15:30:28;;;;;;;0.00;0.00;;;30.40;58.60;;;;;;4978548;28;20059;-79
2023/08/23 15:32:53;;;;;;;0.00;0.00;;;30.40;59.50;;;;;;4987933;28;20086;-80
2023/08/23 15:35:19;;;;;;;0.00;0.00;;;30.40;58.90;;;;;;4996860;28;20034;-83
2023/08/23 15:37:47;;;;;;;0.00;0.00;;;30.20;58.80;;;;;;4998420;28;20026;-83
2023/08/23 15:40:12;;;;;;;0.00;0.00;;;30.00;58.00;;;;;;4997152;28;20027;-83
2023/08/23 15:42:38;;;;;;;0.00;0.00;;;30.10;59.50;;;;;;4996844;28;20073;-83
2023/08/23 15:45:05;;;;;;;0.08;0.00;;;30.10;58.40;;;;;;4998139;28;20033;-89
2023/08/23 15:49:57;;;;;;;0.00;0.00;;;30.00;59.60;;;;;;4994996;28;20104;-81
2023/08/23 15:52:22;;;;;;;0.10;0.00;;;30.00;59.60;;;;;;4997267;28;20515;-77
2023/08/23 15:54:49;;;;;;;0.00;0.00;;;29.90;59.80;;;;;;4998587;28;20121;-76
2023/08/23 15:57:17;;;;;;;0.00;0.00;;;29.90;59.50;;;;;;5000646;28;20022;-76
2023/08/23 15:59:42;;;;;;;0.00;0.00;;;29.90;59.80;;;;;;4999045;28;20101;-75
2023/08/23 16:02:08;;;;;;;0.15;0.00;;;29.80;60.10;;;;;;4986901;28;20050;-79
2023/08/23 16:04:33;;;;;;;0.00;0.00;;;29.70;60.30;;;;;;4992678;28;20030;-76
2023/08/23 16:06:59;;;;;;;0.00;0.00;;;29.70;61.00;;;;;;5001415;28;20026;-75
2023/08/23 16:09:25;;;;;;;0.00;0.00;;;29.60;61.40;;;;;;5001263;28;20655;-77
2023/08/23 16:11:51;;;;;;;0.00;0.00;;;29.50;61.30;;;;;;4994718;28;20086;-77
2023/08/23 16:17:06;;;;;;;0.00;0.00;;;29.60;61.80;;;;;;5366717;23;20066;-76
2023/08/23 16:19:31;;;;;;;0.00;0.00;;;29.60;61.70;;;;;;4997123;28;20850;-80
2023/08/23 16:21:57;;;;;;;0.00;0.00;;;29.50;61.70;;;;;;4982656;28;20029;-78
2023/08/23 16:24:23;;;;;;;0.00;0.00;;;29.40;61.60;;;;;;4998312;28;20439;-76
2023/08/23 16:26:50;;;;;;;0.00;0.00;;;29.30;62.00;;;;;;4981428;28;20035;-75
2023/08/23 16:29:15;;;;;;;0.00;0.00;;;29.30;61.90;;;;;;4981407;28;20059;-76
2023/08/23 16:31:42;;;;;;;0.00;0.00;;;29.30;62.10;;;;;;4982952;28;20039;-76
2023/08/23 16:34:07;;;;;;;0.00;0.00;;;29.30;62.30;;;;;;4973741;28;20101;-75
2023/08/23 16:36:34;;;;;;;0.00;0.00;;;29.30;62.20;;;;;;4990659;28;20054;-76
2023/08/23 16:38:59;;;;;;;0.00;0.00;;;29.30;62.00;;;;;;4989270;28;20365;-75
2023/08/23 16:41:25;;;;;;;0.00;0.00;;;29.30;62.30;;;;;;4972115;28;20080;-77
2023/08/23 16:43:51;;;;;;;0.00;0.00;;;29.30;62.50;;;;;;4971563;28;20034;-78
2023/08/23 16:46:16;;;;;;;0.00;0.00;;;29.30;62.70;;;;;;4996374;28;20037;-77
2023/08/23 16:48:43;;;;;;;0.00;0.00;;;29.30;62.50;;;;;;4987521;28;20022;-75
2023/08/23 16:51:09;;;;;;;0.00;0.00;;;29.30;62.50;;;;;;4995659;28;20026;-78
2023/08/23 16:53:35;;;;;;;0.00;0.00;;;29.30;62.60;;;;;;4975940;28;20038;-76
2023/08/23 16:56:00;;;;;;;0.00;0.00;;;29.30;62.60;;;;;;4974127;28;20054;-76
2023/08/23 16:58:26;;;;;;;0.10;0.00;;;29.30;62.70;;;;;;4976916;28;20019;-76
2023/08/23 17:00:52;;;;;;;0.00;0.00;;;29.10;63.00;;;;;;4981294;28;20058;-75
2023/08/23 17:03:18;;;;;;;0.00;0.00;;;29.10;63.30;;;;;;4999940;28;20025;-75
2023/08/23 17:05:44;;;;;;;0.00;0.00;;;29.10;63.30;;;;;;4999134;28;20023;-77
2023/08/23 17:08:09;;;;;;;0.00;0.00;;;29.20;63.90;;;;;;4999792;28;20033;-77
2023/08/23 17:10:35;;;;;;;0.00;0.00;;;29.10;63.70;;;;;;4982555;28;20037;-79
2023/08/23 17:13:02;;;;;;;0.00;0.00;;;29.10;64.00;;;;;;4982722;28;20026;-79
2023/08/23 17:15:27;;;;;;;0.00;0.00;;;29.00;64.00;;;;;;4999925;28;20110;-79
2023/08/23 17:17:53;;;;;;;0.00;0.00;;;29.10;64.30;;;;;;4986122;28;20081;-76